createdAt,value
2022-09-28T00:06:53.936Z,79.76
2022-09-28T00:28:36.984Z,78.87
2022-09-28T00:50:26.238Z,79.82
2022-09-28T01:12:09.932Z,80.66
2022-09-28T01:34:00.256Z,81.55
2022-09-28T01:55:45.876Z,81.46
2022-09-28T02:17:29.064Z,81.80
2022-09-28T02:39:16.316Z,82.10
2022-09-28T03:01:15.199Z,82.55
2022-09-28T03:23:23.204Z,82.42
2022-09-28T03:45:01.676Z,83.26
2022-09-28T04:06:45.371Z,83.83
2022-09-28T04:28:47.258Z,83.52
2022-09-28T04:50:30.762Z,83.56
2022-09-28T05:12:29.076Z,83.08
2022-09-28T05:34:12.528Z,82.19
2022-09-28T05:55:59.256Z,82.11
2022-09-28T06:17:43.281Z,81.58
2022-09-28T06:39:58.533Z,79.54
2022-09-28T07:01:41.973Z,75.91
2022-09-28T07:23:49.595Z,74.78
2022-09-28T07:45:39.388Z,74.82
2022-09-28T08:07:25.069Z,67.15
2022-09-28T08:29:16.330Z,37.82
2022-09-28T08:51:14.227Z,30.43
2022-09-28T09:13:30.247Z,21.31
2022-09-28T09:35:53.353Z,19.56
2022-09-28T09:58:03.053Z,22.84
2022-09-28T10:19:59.195Z,27.23
2022-09-28T10:42:03.716Z,33.08
2022-09-28T11:03:54.959Z,45.82
2022-09-28T11:25:39.095Z,58.42
2022-09-28T11:47:54.961Z,60.05
2022-09-28T12:09:45.477Z,63.05
2022-09-28T12:31:38.588Z,64.43
2022-09-28T12:53:38.936Z,65.14
2022-09-28T13:15:41.066Z,65.52
2022-09-28T13:37:25.917Z,64.99
2022-09-28T13:59:18.751Z,65.86
2022-09-28T14:21:34.596Z,67.33
2022-09-28T14:43:26.201Z,69.50
2022-09-28T15:05:16.300Z,72.03
2022-09-28T15:26:59.917Z,74.23
2022-09-28T15:48:51.650Z,73.80
2022-09-28T16:10:36.993Z,73.93
2022-09-28T16:32:37.719Z,75.76
2022-09-28T16:54:41.557Z,77.04
2022-09-28T17:16:57.338Z,77.40
2022-09-28T17:38:31.903Z,78.52
2022-09-28T18:00:17.089Z,78.21
2022-09-28T18:22:01.208Z,78.15
2022-09-28T18:43:49.166Z,78.36
2022-09-28T19:05:34.441Z,77.80
2022-09-28T19:27:17.881Z,78.00
2022-09-28T19:49:02.593Z,78.66
2022-09-28T20:10:51.782Z,78.85
2022-09-28T20:32:35.090Z,79.40
2022-09-28T20:54:18.144Z,80.17
2022-09-28T21:16:02.874Z,80.64
2022-09-28T21:37:45.666Z,80.66
2022-09-28T21:59:28.708Z,80.77
2022-09-28T22:21:14.297Z,81.33
2022-09-28T22:42:57.359Z,80.91
2022-09-28T23:04:40.506Z,80.43
2022-09-28T23:26:26.396Z,80.08
2022-09-28T23:48:09.414Z,80.44
